Time;durP1;ratioP1;P1;durP2;ratioP2;P2;SDS_P1;SDS_P2;PMS_P1;PMS_P2;Temp;Humidity;BMP_temperature;BMP_pressure;BME280_temperature;BME280_humidity;BME280_pressure;Samples;Min_cycle;Max_cycle;Signal;HPM_P1;HPM_P2
2024/04/10 00:00:24;;;;;;;0.40;0.40;;;12.20;78.00;;;;;;11175131;26;20336;-77
2024/04/10 00:05:31;;;;;;;0.50;0.50;;;12.20;77.90;;;;;;11199104;26;20242;-76
2024/04/10 00:10:35;;;;;;;0.50;0.50;;;12.20;77.90;;;;;;11199000;26;20261;-76
2024/04/10 00:15:39;;;;;;;0.50;0.50;;;12.10;77.70;;;;;;11199376;26;20708;-77
2024/04/10 00:20:51;;;;;;;0.50;0.50;;;12.20;78.10;;;;;;11162038;26;20647;-77
2024/04/10 00:25:56;;;;;;;0.50;0.50;;;12.20;78.20;;;;;;11190599;26;20353;-75
2024/04/10 00:31:05;;;;;;;0.40;0.40;;;12.30;78.10;;;;;;11186647;26;20243;-77
2024/04/10 00:36:13;;;;;;;0.40;0.40;;;12.20;77.80;;;;;;11187488;26;20266;-76
2024/04/10 00:41:17;;;;;;;0.40;0.40;;;12.20;77.90;;;;;;11199226;26;20242;-77
2024/04/10 00:46:22;;;;;;;0.40;0.40;;;12.20;77.50;;;;;;11189749;26;20257;-77
2024/04/10 00:51:29;;;;;;;0.50;0.50;;;12.20;77.90;;;;;;11206091;26;20758;-76
2024/04/10 00:56:33;;;;;;;0.40;0.40;;;12.10;77.70;;;;;;11202120;26;20243;-76
2024/04/10 01:01:37;;;;;;;0.50;0.50;;;12.00;77.70;;;;;;11196800;26;20270;-76
2024/04/10 01:06:43;;;;;;;0.40;0.40;;;12.00;77.80;;;;;;11193120;26;20825;-76
2024/04/10 01:11:47;;;;;;;0.40;0.40;;;12.00;77.40;;;;;;11204967;26;20235;-77
2024/04/10 01:16:52;;;;;;;0.50;0.50;;;11.90;77.70;;;;;;11204596;26;20578;-76
2024/04/10 01:21:58;;;;;;;0.50;0.50;;;11.90;78.00;;;;;;11204652;26;20243;-76
2024/04/10 01:27:05;;;;;;;0.50;0.50;;;11.80;78.30;;;;;;11204092;26;20277;-76
2024/04/10 01:32:09;;;;;;;0.50;0.50;;;11.80;78.50;;;;;;11192732;26;20622;-76
2024/04/10 01:37:13;;;;;;;0.40;0.40;;;11.60;78.70;;;;;;11203673;26;20235;-76
2024/04/10 01:42:20;;;;;;;0.50;0.50;;;11.40;80.40;;;;;;11197130;26;20232;-76
2024/04/10 01:47:24;;;;;;;0.50;0.50;;;11.30;80.40;;;;;;11203095;26;20235;-76
2024/04/10 01:52:28;;;;;;;0.70;0.70;;;11.20;80.90;;;;;;11203391;26;20227;-76
2024/04/10 01:57:35;;;;;;;0.60;0.60;;;11.10;80.90;;;;;;11196185;26;20242;-76
2024/04/10 02:02:39;;;;;;;0.70;0.70;;;11.00;81.30;;;;;;11201774;26;20243;-76
2024/04/10 02:07:43;;;;;;;0.70;0.70;;;11.00;81.80;;;;;;11163507;26;20243;-76
2024/04/10 02:12:50;;;;;;;0.70;0.70;;;10.90;81.90;;;;;;11203057;26;20230;-76
2024/04/10 02:17:54;;;;;;;0.60;0.60;;;10.90;82.30;;;;;;11171523;26;20278;-76
2024/04/10 02:22:58;;;;;;;0.70;0.70;;;10.90;82.50;;;;;;11203085;26;20265;-77
2024/04/10 02:28:04;;;;;;;0.80;0.80;;;10.90;82.80;;;;;;11193104;26;20236;-76
2024/04/10 02:33:08;;;;;;;0.60;0.60;;;10.90;82.60;;;;;;11188515;26;20279;-76
2024/04/10 02:38:12;;;;;;;0.60;0.60;;;11.00;83.10;;;;;;11194611;26;20700;-76
2024/04/10 02:43:19;;;;;;;0.70;0.70;;;11.10;83.10;;;;;;11187718;26;20243;-77
2024/04/10 02:48:23;;;;;;;0.80;0.80;;;11.20;83.20;;;;;;11190817;26;20666;-76
2024/04/10 02:53:27;;;;;;;0.60;0.60;;;11.30;82.80;;;;;;11201638;26;20728;-76
2024/04/10 02:58:34;;;;;;;0.47;0.47;;;11.30;82.10;;;;;;11198680;26;20231;-77
2024/04/10 03:03:38;;;;;;;0.60;0.60;;;11.30;81.90;;;;;;11168949;26;20246;-77
2024/04/10 03:08:42;;;;;;;0.70;0.70;;;11.30;81.50;;;;;;11192818;26;20265;-76
2024/04/10 03:13:48;;;;;;;0.70;0.70;;;11.20;81.80;;;;;;11191630;26;20273;-76
2024/04/10 03:18:52;;;;;;;1.03;1.03;;;11.20;81.90;;;;;;11188877;26;20232;-76
2024/04/10 03:23:56;;;;;;;1.00;1.00;;;11.10;81.70;;;;;;11190418;26;20236;-76
2024/04/10 03:29:03;;;;;;;1.10;1.10;;;11.10;81.40;;;;;;11199242;26;20223;-76
2024/04/10 03:34:07;;;;;;;0.70;0.70;;;11.00;81.30;;;;;;11195397;26;20246;-76
2024/04/10 03:39:11;;;;;;;0.87;0.87;;;11.10;81.60;;;;;;11200338;26;20746;-76
2024/04/10 03:44:19;;;;;;;0.87;0.87;;;11.00;81.50;;;;;;11194320;26;20845;-76
2024/04/10 03:49:23;;;;;;;0.70;0.70;;;11.00;81.90;;;;;;11199274;26;20239;-76
2024/04/10 03:54:27;;;;;;;0.90;0.90;;;11.00;81.70;;;;;;11195781;26;20277;-76
2024/04/10 03:59:34;;;;;;;0.87;0.87;;;11.10;82.30;;;;;;11155361;26;20243;-76
2024/04/10 04:04:39;;;;;;;0.90;0.90;;;11.20;81.90;;;;;;11193626;26;20671;-76
2024/04/10 04:09:43;;;;;;;1.03;1.03;;;11.20;81.30;;;;;;11198403;26;20238;-76
2024/04/10 04:14:50;;;;;;;0.90;0.90;;;11.20;81.10;;;;;;11153641;26;20350;-76
2024/04/10 04:19:54;;;;;;;0.87;0.87;;;11.10;80.90;;;;;;11198843;26;20235;-76
2024/04/10 04:24:59;;;;;;;1.00;1.00;;;11.10;81.10;;;;;;11206203;26;20646;-76
2024/04/10 04:30:07;;;;;;;0.80;0.80;;;11.10;81.00;;;;;;11193486;26;20736;-76
2024/04/10 04:35:11;;;;;;;0.80;0.80;;;11.10;80.70;;;;;;11151255;26;20247;-76
2024/04/10 04:40:15;;;;;;;0.90;0.90;;;11.20;80.30;;;;;;11197468;26;20838;-76
2024/04/10 04:45:22;;;;;;;0.80;0.80;;;11.20;80.60;;;;;;11198533;26;20587;-76
2024/04/10 04:50:26;;;;;;;0.80;0.80;;;11.20;79.80;;;;;;11183302;26;20769;-76
2024/04/10 04:55:31;;;;;;;0.70;0.70;;;11.10;79.80;;;;;;11205009;26;20230;-76
2024/04/10 05:00:39;;;;;;;0.80;0.80;;;11.10;80.30;;;;;;11156432;26;20238;-76
2024/04/10 05:05:42;;;;;;;0.80;0.80;;;11.00;80.10;;;;;;11204610;26;20242;-76
2024/04/10 05:10:46;;;;;;;0.90;0.90;;;11.00;80.40;;;;;;11167086;26;20235;-76
2024/04/10 05:15:58;;;;;;;0.80;0.80;;;11.10;80.40;;;;;;11203821;26;20657;-75
2024/04/10 05:21:03;;;;;;;0.70;0.70;;;11.20;80.10;;;;;;11195595;26;20646;-77
2024/04/10 05:26:07;;;;;;;0.63;0.63;;;11.30;79.90;;;;;;11191844;26;20247;-76
2024/04/10 05:31:13;;;;;;;0.70;0.70;;;11.40;79.90;;;;;;11197843;26;20232;-77
2024/04/10 05:36:17;;;;;;;0.70;0.70;;;11.50;79.60;;;;;;11192411;26;20278;-77
2024/04/10 05:41:22;;;;;;;0.70;0.70;;;11.60;79.00;;;;;;11194486;26;20274;-76
2024/04/10 05:46:31;;;;;;;0.60;0.60;;;11.70;78.00;;;;;;11196400;26;20279;-76
2024/04/10 05:51:35;;;;;;;0.60;0.60;;;11.70;78.10;;;;;;11203756;26;20738;-76
2024/04/10 05:56:39;;;;;;;0.60;0.60;;;11.70;77.30;;;;;;11192424;26;20244;-77
2024/04/10 06:01:46;;;;;;;0.70;0.70;;;11.80;78.00;;;;;;11197279;26;20239;-77
2024/04/10 06:06:50;;;;;;;0.90;0.90;;;11.90;77.40;;;;;;11201421;26;20275;-76
2024/04/10 06:11:54;;;;;;;0.77;0.77;;;11.90;77.00;;;;;;11197052;26;20238;-77
2024/04/10 06:17:01;;;;;;;0.80;0.80;;;11.90;77.30;;;;;;11202910;26;20247;-76
2024/04/10 06:22:05;;;;;;;0.70;0.70;;;12.00;77.10;;;;;;11171527;26;20324;-77
2024/04/10 06:27:09;;;;;;;0.37;0.37;;;12.10;77.00;;;;;;11188406;26;20238;-77
2024/04/10 06:32:17;;;;;;;1.10;1.10;;;12.10;77.00;;;;;;11192394;26;20671;-77
2024/04/10 06:37:21;;;;;;;0.30;0.30;;;12.20;77.00;;;;;;11201895;26;20274;-77
2024/04/10 06:42:25;;;;;;;0.90;0.90;;;12.30;76.80;;;;;;11177232;26;20306;-76
2024/04/10 06:47:32;;;;;;;0.80;0.80;;;12.40;76.90;;;;;;11201278;26;20277;-77
2024/04/10 06:52:36;;;;;;;0.70;0.70;;;12.50;76.20;;;;;;11196164;26;20296;-76
2024/04/10 06:57:40;;;;;;;0.70;0.70;;;12.60;75.40;;;;;;11198353;26;20258;-77
2024/04/10 07:02:47;;;;;;;0.70;0.70;;;12.70;75.80;;;;;;11193915;26;20332;-77
2024/04/10 07:07:51;;;;;;;0.60;0.60;;;12.80;75.70;;;;;;11169704;26;20339;-77
2024/04/10 07:12:55;;;;;;;0.70;0.70;;;13.00;73.30;;;;;;11194249;26;20239;-77
2024/04/10 07:18:01;;;;;;;0.70;0.70;;;12.90;73.80;;;;;;11198463;26;20269;-77
2024/04/10 07:23:06;;;;;;;0.50;0.50;;;13.00;73.70;;;;;;11200923;26;20231;-77
2024/04/10 07:28:10;;;;;;;0.70;0.70;;;13.10;73.80;;;;;;11186166;26;20343;-76
2024/04/10 07:33:16;;;;;;;0.50;0.50;;;13.20;74.40;;;;;;11200552;26;20960;-76
2024/04/10 07:38:20;;;;;;;0.40;0.40;;;13.30;74.00;;;;;;11185008;26;20247;-77
2024/04/10 07:43:25;;;;;;;0.30;0.30;;;13.40;72.40;;;;;;11193751;26;20340;-77
2024/04/10 07:48:32;;;;;;;0.40;0.40;;;13.50;73.90;;;;;;11192707;26;20235;-77
2024/04/10 07:53:37;;;;;;;0.40;0.40;;;13.60;72.80;;;;;;11205415;26;20630;-77
2024/04/10 07:58:41;;;;;;;0.40;0.40;;;13.60;72.80;;;;;;11203078;26;20239;-76
2024/04/10 08:03:48;;;;;;;0.50;0.50;;;13.70;72.10;;;;;;11206593;26;20339;-77
2024/04/10 08:08:52;;;;;;;0.40;0.40;;;13.80;72.10;;;;;;11202177;26;20238;-76
2024/04/10 08:13:56;;;;;;;0.40;0.40;;;13.90;72.00;;;;;;11208420;26;20720;-78
2024/04/10 08:19:03;;;;;;;0.10;0.10;;;13.90;72.00;;;;;;11217530;26;20300;-78
2024/04/10 08:24:07;;;;;;;0.40;0.40;;;14.00;71.40;;;;;;11218826;26;20339;-78
2024/04/10 08:29:11;;;;;;;0.40;0.40;;;14.10;71.40;;;;;;11216510;26;20231;-78
2024/04/10 08:34:18;;;;;;;0.50;0.50;;;14.20;70.90;;;;;;11206763;26;20270;-79
2024/04/10 08:39:22;;;;;;;0.50;0.50;;;14.20;70.60;;;;;;11178968;26;20752;-78
2024/04/10 08:44:28;;;;;;;0.40;0.40;;;14.30;71.40;;;;;;11193955;26;20236;-78
2024/04/10 08:49:36;;;;;;;0.50;0.50;;;14.40;70.70;;;;;;11215876;26;20235;-78
2024/04/10 08:54:40;;;;;;;0.40;0.40;;;14.40;70.60;;;;;;11217112;26;20243;-78
2024/04/10 08:59:44;;;;;;;0.40;0.40;;;14.40;70.50;;;;;;11201530;26;20632;-78
2024/04/10 09:04:50;;;;;;;0.50;0.50;;;14.40;70.00;;;;;;11209048;26;20269;-78
2024/04/10 09:09:54;;;;;;;0.50;0.50;;;14.50;69.50;;;;;;11207646;26;20265;-79
2024/04/10 09:15:09;;;;;;;0.50;0.50;;;14.70;67.40;;;;;;11196675;26;20239;-78
2024/04/10 09:20:16;;;;;;;0.60;0.60;;;14.90;69.10;;;;;;11212675;26;20231;-78
2024/04/10 09:25:20;;;;;;;0.60;0.60;;;15.20;68.10;;;;;;11195750;26;20246;-78
2024/04/10 09:30:25;;;;;;;0.50;0.50;;;15.40;66.50;;;;;;11188076;26;20235;-77
2024/04/10 09:35:32;;;;;;;0.67;0.67;;;15.40;66.80;;;;;;11208660;26;20257;-77
2024/04/10 09:40:40;;;;;;;0.60;0.60;;;15.30;64.10;;;;;;11187595;26;20340;-78
2024/04/10 09:45:47;;;;;;;0.50;0.50;;;15.30;64.50;;;;;;11207265;26;20581;-78
2024/04/10 09:50:58;;;;;;;0.60;0.60;;;15.50;65.40;;;;;;11201543;26;20235;-78
2024/04/10 09:56:04;;;;;;;0.50;0.50;;;15.80;64.50;;;;;;11214458;26;20331;-78
2024/04/10 10:01:08;;;;;;;0.60;0.60;;;16.20;63.80;;;;;;11211926;26;20238;-79
2024/04/10 10:06:15;;;;;;;0.60;0.60;;;16.40;63.60;;;;;;11201279;26;20235;-78
2024/04/10 10:11:22;;;;;;;0.50;0.50;;;16.40;60.80;;;;;;11208629;26;20230;-78
2024/04/10 10:16:27;;;;;;;0.47;0.47;;;16.40;60.40;;;;;;11205199;26;20278;-78
2024/04/10 10:21:34;;;;;;;0.50;0.50;;;16.30;59.60;;;;;;11184456;26;20235;-78
2024/04/10 10:26:38;;;;;;;0.50;0.50;;;16.30;59.60;;;;;;11213798;26;20242;-79
2024/04/10 10:31:42;;;;;;;0.50;0.50;;;16.50;58.90;;;;;;11215442;26;20663;-78
2024/04/10 10:36:50;;;;;;;0.50;0.50;;;16.70;59.40;;;;;;11202790;26;20242;-78
2024/04/10 10:42:02;;;;;;;0.50;0.50;;;16.60;58.80;;;;;;11205915;26;20265;-79
2024/04/10 10:47:11;;;;;;;0.50;0.50;;;16.30;58.60;;;;;;11207078;26;20234;-79
2024/04/10 10:52:18;;;;;;;0.50;0.50;;;16.10;58.50;;;;;;11211195;26;20603;-78
2024/04/10 10:57:22;;;;;;;0.60;0.60;;;16.00;57.10;;;;;;11193402;26;20262;-77
2024/04/10 11:02:26;;;;;;;0.57;0.57;;;15.90;56.90;;;;;;11211544;26;20231;-78
2024/04/10 11:07:33;;;;;;;0.70;0.70;;;15.80;56.00;;;;;;11179511;26;20273;-78
2024/04/10 11:12:37;;;;;;;0.50;0.50;;;15.90;56.70;;;;;;11205917;26;20223;-78
2024/04/10 11:17:41;;;;;;;0.60;0.60;;;16.00;55.80;;;;;;11208896;26;20231;-78
2024/04/10 11:22:48;;;;;;;0.50;0.50;;;16.00;56.10;;;;;;11148822;26;20250;-77
2024/04/10 11:27:52;;;;;;;0.50;0.50;;;15.90;57.00;;;;;;11193674;26;20243;-78
2024/04/10 11:32:57;;;;;;;0.50;0.50;;;15.90;56.30;;;;;;11194268;26;20629;-78
2024/04/10 11:38:04;;;;;;;0.50;0.50;;;15.80;56.20;;;;;;11208050;26;20282;-78
2024/04/10 11:43:08;;;;;;;0.40;0.40;;;15.80;56.60;;;;;;11196596;26;20235;-78
2024/04/10 11:48:12;;;;;;;0.50;0.50;;;15.80;56.30;;;;;;11177362;26;20239;-77
2024/04/10 11:53:18;;;;;;;0.50;0.50;;;15.60;56.20;;;;;;11209401;26;20327;-78
2024/04/10 11:58:22;;;;;;;0.20;0.20;;;15.40;56.30;;;;;;11199922;26;20243;-78
2024/04/10 12:03:26;;;;;;;0.40;0.40;;;15.30;56.60;;;;;;11174352;26;20234;-78
2024/04/10 12:08:36;;;;;;;0.40;0.40;;;15.20;55.70;;;;;;11210132;26;20223;-78
2024/04/10 12:13:42;;;;;;;0.50;0.50;;;15.20;55.70;;;;;;11203249;26;20247;-78
2024/04/10 12:18:46;;;;;;;0.40;0.40;;;15.10;55.80;;;;;;11203100;26;20253;-79
2024/04/10 12:23:53;;;;;;;0.60;0.60;;;15.20;55.50;;;;;;11194658;26;20347;-79
2024/04/10 12:28:57;;;;;;;0.30;0.30;;;15.20;54.70;;;;;;11199335;26;20340;-79
2024/04/10 12:34:01;;;;;;;0.50;0.50;;;15.10;54.70;;;;;;11158490;26;20744;-78
2024/04/10 12:39:09;;;;;;;0.40;0.40;;;15.20;55.30;;;;;;11182370;26;20286;-77
2024/04/10 12:44:19;;;;;;;0.57;0.57;;;15.10;54.40;;;;;;11178909;26;20335;-77
2024/04/10 12:49:24;;;;;;;0.57;0.57;;;15.20;55.90;;;;;;11171722;26;20235;-77
2024/04/10 12:54:31;;;;;;;0.50;0.50;;;15.20;56.10;;;;;;11208733;26;20235;-77
2024/04/10 12:59:35;;;;;;;0.40;0.40;;;15.30;55.70;;;;;;11197186;26;20322;-77
2024/04/10 13:04:40;;;;;;;0.50;0.50;;;15.30;55.30;;;;;;11192372;26;20235;-77
2024/04/10 13:09:50;;;;;;;0.40;0.40;;;15.30;54.30;;;;;;11199004;26;20261;-77
2024/04/10 13:14:55;;;;;;;0.53;0.53;;;15.20;55.10;;;;;;11196986;26;20246;-78
2024/04/10 13:19:59;;;;;;;0.30;0.30;;;15.10;56.20;;;;;;11207373;26;20227;-77
2024/04/10 13:25:06;;;;;;;0.50;0.50;;;15.20;56.30;;;;;;11205604;26;20242;-77
2024/04/10 13:30:12;;;;;;;0.50;0.50;;;15.20;55.30;;;;;;11209583;26;20308;-77
2024/04/10 13:35:16;;;;;;;0.30;0.30;;;15.20;54.70;;;;;;11194884;26;20277;-77
2024/04/10 13:40:23;;;;;;;0.60;0.60;;;15.40;55.30;;;;;;11187372;26;20834;-77
2024/04/10 13:45:27;;;;;;;0.30;0.30;;;15.50;56.10;;;;;;11196390;26;20727;-77
2024/04/10 13:50:31;;;;;;;0.40;0.40;;;15.60;56.00;;;;;;11203675;26;20257;-77
2024/04/10 13:55:38;;;;;;;0.30;0.30;;;15.70;55.90;;;;;;11195770;26;20243;-77
2024/04/10 14:00:42;;;;;;;0.40;0.40;;;15.70;54.80;;;;;;11204553;26;20662;-76
2024/04/10 14:05:46;;;;;;;0.50;0.50;;;15.60;54.00;;;;;;11163840;26;20278;-76
2024/04/10 14:10:52;;;;;;;0.50;0.50;;;15.40;55.30;;;;;;11169123;26;20231;-76
2024/04/10 14:15:57;;;;;;;0.50;0.50;;;15.20;55.50;;;;;;11204184;26;20333;-76
2024/04/10 14:21:02;;;;;;;0.60;0.60;;;15.30;56.30;;;;;;11203091;26;20243;-77
2024/04/10 14:26:13;;;;;;;0.70;0.70;;;15.20;57.40;;;;;;11203448;26;20776;-77
2024/04/10 14:31:17;;;;;;;0.60;0.60;;;15.20;57.40;;;;;;11208088;26;20625;-77
2024/04/10 14:36:21;;;;;;;0.60;0.60;;;15.40;57.70;;;;;;11174148;26;20243;-77
2024/04/10 14:41:27;;;;;;;0.50;0.50;;;15.60;55.80;;;;;;11189956;26;20339;-77
2024/04/10 14:46:32;;;;;;;0.70;0.70;;;15.90;57.00;;;;;;11188854;26;20578;-77
2024/04/10 14:51:36;;;;;;;0.50;0.50;;;16.00;57.70;;;;;;11197931;26;20242;-77
2024/04/10 14:56:42;;;;;;;0.60;0.60;;;16.10;57.00;;;;;;11197653;26;20261;-77
2024/04/10 15:01:46;;;;;;;0.60;0.60;;;16.30;57.00;;;;;;11198413;26;20816;-77
2024/04/10 15:06:50;;;;;;;0.50;0.50;;;16.40;55.60;;;;;;11203115;26;20246;-77
2024/04/10 15:11:57;;;;;;;0.60;0.60;;;16.60;55.50;;;;;;11196039;26;20227;-77
2024/04/10 15:17:01;;;;;;;0.50;0.50;;;16.70;56.10;;;;;;11205187;26;20344;-77
2024/04/10 15:23:37;;;;;;;0.60;0.60;;;16.70;55.30;;;;;;11437578;25;20568;-76
2024/04/10 15:28:42;;;;;;;0.53;0.53;;;16.70;55.30;;;;;;11350955;25;20573;-76
2024/04/10 15:33:46;;;;;;;0.60;0.60;;;16.70;54.60;;;;;;11355987;26;20714;-76
2024/04/10 15:38:58;;;;;;;0.30;0.30;;;16.70;54.80;;;;;;11343094;25;20726;-76
2024/04/10 15:44:02;;;;;;;0.70;0.70;;;16.60;54.30;;;;;;11342389;26;20345;-76
2024/04/10 15:49:06;;;;;;;0.60;0.60;;;16.50;55.30;;;;;;11350662;25;20240;-76
2024/04/10 15:54:12;;;;;;;0.30;0.30;;;16.50;54.70;;;;;;11345074;26;20240;-75
2024/04/10 15:59:16;;;;;;;0.60;0.60;;;16.40;54.90;;;;;;11363612;26;20267;-76
2024/04/10 16:04:20;;;;;;;0.50;0.50;;;16.30;55.40;;;;;;11347430;26;20279;-76
2024/04/10 16:09:27;;;;;;;0.60;0.60;;;16.30;56.00;;;;;;11361556;25;20236;-76
2024/04/10 16:14:31;;;;;;;0.40;0.40;;;16.20;55.10;;;;;;11353562;25;20241;-76
2024/04/10 16:19:35;;;;;;;0.60;0.60;;;16.00;55.30;;;;;;11357724;25;20236;-75
2024/04/10 16:24:42;;;;;;;0.50;0.50;;;15.90;56.50;;;;;;11337278;26;20636;-76
2024/04/10 16:29:46;;;;;;;0.60;0.60;;;15.70;55.80;;;;;;11351282;26;20236;-76
2024/04/10 16:34:50;;;;;;;0.60;0.60;;;15.50;56.60;;;;;;11326225;25;20242;-76
2024/04/10 16:39:57;;;;;;;0.60;0.60;;;15.40;58.60;;;;;;11327786;26;20264;-76
2024/04/10 16:45:01;;;;;;;0.50;0.50;;;15.30;56.50;;;;;;11316152;26;20750;-76
2024/04/10 16:50:05;;;;;;;0.60;0.60;;;15.30;57.50;;;;;;11328033;26;20264;-76
2024/04/10 16:55:12;;;;;;;0.50;0.50;;;15.20;56.30;;;;;;11317591;26;20233;-75
2024/04/10 17:00:16;;;;;;;0.60;0.60;;;15.20;60.00;;;;;;11322259;26;20237;-75
2024/04/10 17:05:20;;;;;;;0.67;0.67;;;15.20;59.60;;;;;;11296297;26;20233;-75
2024/04/10 17:10:27;;;;;;;0.80;0.80;;;15.20;56.40;;;;;;11312816;26;20722;-75
2024/04/10 17:15:31;;;;;;;0.60;0.60;;;15.10;54.80;;;;;;11303798;26;20269;-75
2024/04/10 17:25:59;;;;;;;0.90;0.90;;;15.10;58.10;;;;;;11264141;26;20232;-74
2024/04/10 17:31:05;;;;;;;0.83;0.83;;;15.10;57.80;;;;;;11334832;26;20650;-75
2024/04/10 17:36:10;;;;;;;0.70;0.70;;;15.00;59.30;;;;;;11309821;26;20237;-75
2024/04/10 17:41:17;;;;;;;0.80;0.80;;;15.00;56.00;;;;;;11313735;26;20691;-75
2024/04/10 17:46:21;;;;;;;0.70;0.70;;;15.00;56.30;;;;;;11306642;26;20627;-75
2024/04/10 17:51:25;;;;;;;0.60;0.60;;;14.90;56.20;;;;;;11343448;26;20710;-75
2024/04/10 17:56:31;;;;;;;0.60;0.60;;;14.80;56.40;;;;;;11312969;26;20237;-74
2024/04/10 18:01:35;;;;;;;0.87;0.87;;;14.60;57.60;;;;;;11313713;26;20318;-74
2024/04/10 18:06:40;;;;;;;0.60;0.60;;;14.50;58.60;;;;;;11337795;26;20727;-74
2024/04/10 18:11:47;;;;;;;0.70;0.70;;;14.30;59.10;;;;;;11315327;26;20228;-75
2024/04/10 18:16:51;;;;;;;0.70;0.70;;;14.20;58.70;;;;;;11299150;26;20236;-75
2024/04/10 18:21:55;;;;;;;0.60;0.60;;;14.00;59.40;;;;;;11300018;26;20819;-76
2024/04/10 18:27:01;;;;;;;0.70;0.70;;;13.80;59.40;;;;;;11309390;26;20245;-75
2024/04/10 18:32:08;;;;;;;0.60;0.60;;;13.70;59.60;;;;;;11305309;26;20795;-75
2024/04/10 18:37:13;;;;;;;0.70;0.70;;;13.50;59.60;;;;;;11286829;26;20319;-76
2024/04/10 18:42:20;;;;;;;0.80;0.80;;;13.40;59.70;;;;;;11319583;26;20290;-76
2024/04/10 18:47:26;;;;;;;0.90;0.90;;;13.30;60.20;;;;;;11306500;26;20689;-76
2024/04/10 18:52:30;;;;;;;0.70;0.70;;;13.20;60.30;;;;;;11280210;26;20249;-76
2024/04/10 18:57:36;;;;;;;0.60;0.60;;;13.10;60.80;;;;;;11326609;26;20275;-76
2024/04/10 19:02:40;;;;;;;0.60;0.60;;;13.10;61.70;;;;;;11292100;26;20330;-75
2024/04/10 19:07:44;;;;;;;0.70;0.70;;;13.00;61.70;;;;;;11291210;26;20242;-76
2024/04/10 19:12:51;;;;;;;0.70;0.70;;;12.90;61.50;;;;;;11279583;26;20617;-75
2024/04/10 19:17:55;;;;;;;0.70;0.70;;;12.90;61.70;;;;;;11306661;26;20643;-76
2024/04/10 19:22:59;;;;;;;0.87;0.87;;;12.80;62.70;;;;;;11315005;26;20336;-76
2024/04/10 19:28:06;;;;;;;0.77;0.77;;;12.80;63.40;;;;;;11302022;26;20240;-76
2024/04/10 19:33:10;;;;;;;0.80;0.80;;;12.70;63.60;;;;;;11320212;26;20595;-75
2024/04/10 19:38:14;;;;;;;0.20;0.20;;;12.60;64.40;;;;;;11292924;26;20269;-76
2024/04/10 19:43:22;;;;;;;0.83;0.83;;;12.50;64.20;;;;;;11286205;26;20808;-75
2024/04/10 19:48:26;;;;;;;0.70;0.70;;;12.50;64.90;;;;;;11278458;26;20261;-75
2024/04/10 19:53:30;;;;;;;0.70;0.70;;;12.40;65.50;;;;;;11287612;26;20233;-75
2024/04/10 19:58:37;;;;;;;0.80;0.80;;;12.40;66.00;;;;;;11290182;26;20253;-76
2024/04/10 20:03:41;;;;;;;0.90;0.90;;;12.40;66.30;;;;;;11322347;26;20249;-75
2024/04/10 20:08:46;;;;;;;0.80;0.80;;;12.30;67.40;;;;;;11289398;26;20715;-76
2024/04/10 20:13:52;;;;;;;0.80;0.80;;;12.20;66.90;;;;;;11287264;26;20238;-76
2024/04/10 20:18:57;;;;;;;0.60;0.60;;;12.10;67.30;;;;;;11288735;26;21080;-76
2024/04/10 20:24:01;;;;;;;0.60;0.60;;;12.10;67.50;;;;;;11289839;26;20338;-76
2024/04/10 20:29:08;;;;;;;0.73;0.73;;;12.10;67.70;;;;;;11290758;26;20241;-76
2024/04/10 20:34:12;;;;;;;0.67;0.67;;;12.00;68.00;;;;;;11291563;26;20614;-75
2024/04/10 20:39:16;;;;;;;0.70;0.70;;;12.00;68.30;;;;;;11293861;20;20264;-80
2024/04/10 20:44:24;;;;;;;0.60;0.60;;;11.90;68.80;;;;;;11202155;26;20769;-78
2024/04/10 20:49:28;;;;;;;0.83;0.83;;;11.90;69.10;;;;;;11274204;25;20255;-79
2024/04/10 20:54:32;;;;;;;0.70;0.70;;;11.80;69.50;;;;;;11259501;26;20704;-78
2024/04/10 20:59:39;;;;;;;0.57;0.57;;;11.80;70.00;;;;;;11250430;26;20239;-79
2024/04/10 21:04:43;;;;;;;0.40;0.40;;;11.70;70.00;;;;;;11249679;26;20263;-79
2024/04/10 22:13:56;;;;;;;0.60;0.60;;;11.10;73.70;;;;;;11256166;26;20242;-79
2024/04/10 22:24:23;;;;;;;0.50;0.50;;;11.00;74.10;;;;;;11269211;26;20647;-79
2024/04/10 22:29:28;;;;;;;0.40;0.40;;;11.00;74.10;;;;;;11260601;26;20277;-79
2024/04/10 22:34:35;;;;;;;0.40;0.40;;;11.00;74.30;;;;;;11259453;26;20218;-81
2024/04/10 22:39:39;;;;;;;0.53;0.53;;;11.00;74.40;;;;;;11266678;26;20272;-79
2024/04/10 22:44:44;;;;;;;0.40;0.40;;;11.00;74.60;;;;;;11263202;26;20260;-78
2024/04/10 22:49:53;;;;;;;0.50;0.50;;;10.90;74.50;;;;;;11264248;26;20276;-81
2024/04/10 22:54:57;;;;;;;0.70;0.70;;;10.80;74.50;;;;;;11266115;26;20264;-78
2024/04/10 23:00:01;;;;;;;0.50;0.50;;;10.70;74.70;;;;;;11269747;26;20276;-80
2024/04/10 23:05:08;;;;;;;0.50;0.50;;;10.70;74.90;;;;;;11261280;26;20264;-79
2024/04/10 23:10:12;;;;;;;0.50;0.50;;;10.70;74.70;;;;;;11258843;26;20242;-79
2024/04/10 23:15:16;;;;;;;0.50;0.50;;;10.70;74.90;;;;;;11259940;26;20230;-80
2024/04/10 23:20:23;;;;;;;0.70;0.70;;;10.60;74.80;;;;;;11255664;26;20241;-79
2024/04/10 23:25:27;;;;;;;0.60;0.60;;;10.50;75.00;;;;;;11255753;26;20238;-80
2024/04/10 23:30:31;;;;;;;0.57;0.57;;;10.50;75.50;;;;;;11254682;26;20318;-78
2024/04/10 23:35:38;;;;;;;0.57;0.57;;;10.50;75.80;;;;;;11257316;26;20230;-79
2024/04/10 23:40:42;;;;;;;0.63;0.63;;;10.50;75.70;;;;;;11264937;26;20237;-81
2024/04/10 23:45:55;;;;;;;0.60;0.60;;;10.60;75.90;;;;;;11264456;26;20242;-78
2024/04/10 23:51:01;;;;;;;0.50;0.50;;;10.60;76.00;;;;;;11265015;26;20306;-79
2024/04/10 23:56:07;;;;;;;0.50;0.50;;;10.60;76.00;;;;;;11262570;26;20246;-79
